sensor_id;sensor_type;location;lat;lon;timestamp;pressure;altitude;pressure_sealevel;temperature;humidity
71105;BME280;58760;48.716;8.962;2022-11-20T00:01:09;95983.66;;;3.86;93.90
71105;BME280;58760;48.716;8.962;2022-11-20T00:03:36;95981.91;;;3.77;94.05
71105;BME280;58760;48.716;8.962;2022-11-20T00:06:13;95979.41;;;3.75;94.27
71105;BME280;58760;48.716;8.962;2022-11-20T00:08:39;95980.25;;;3.76;94.66
71105;BME280;58760;48.716;8.962;2022-11-20T00:11:06;95967.25;;;3.74;95.10
71105;BME280;58760;48.716;8.962;2022-11-20T00:13:32;95977.84;;;3.82;95.21
71105;BME280;58760;48.716;8.962;2022-11-20T00:15:59;95970.28;;;3.79;95.03
71105;BME280;58760;48.716;8.962;2022-11-20T00:18:25;95978.41;;;3.86;95.15
71105;BME280;58760;48.716;8.962;2022-11-20T00:20:50;95971.34;;;3.86;95.08
71105;BME280;58760;48.716;8.962;2022-11-20T00:23:15;95976.03;;;3.92;95.15
71105;BME280;58760;48.716;8.962;2022-11-20T00:25:41;95975.44;;;3.98;95.30
71105;BME280;58760;48.716;8.962;2022-11-20T00:28:06;95975.81;;;4.03;95.21
71105;BME280;58760;48.716;8.962;2022-11-20T00:30:31;95977.19;;;4.07;94.69
71105;BME280;58760;48.716;8.962;2022-11-20T00:32:57;95974.84;;;4.04;94.96
71105;BME280;58760;48.716;8.962;2022-11-20T00:35:23;95975.97;;;4.02;94.92
71105;BME280;58760;48.716;8.962;2022-11-20T00:37:48;95977.09;;;3.99;94.66
71105;BME280;58760;48.716;8.962;2022-11-20T00:40:14;95979.84;;;3.98;94.92
71105;BME280;58760;48.716;8.962;2022-11-20T00:42:39;95976.69;;;3.94;95.04
71105;BME280;58760;48.716;8.962;2022-11-20T00:45:05;95979.59;;;3.91;95.39
71105;BME280;58760;48.716;8.962;2022-11-20T00:47:30;95978.25;;;3.87;95.35
71105;BME280;58760;48.716;8.962;2022-11-20T00:49:55;95978.41;;;3.86;95.69
71105;BME280;58760;48.716;8.962;2022-11-20T00:52:21;95982.72;;;3.77;95.32
71105;BME280;58760;48.716;8.962;2022-11-20T00:54:46;95981.59;;;3.80;95.28
71105;BME280;58760;48.716;8.962;2022-11-20T00:57:11;95981.34;;;3.73;95.38
71105;BME280;58760;48.716;8.962;2022-11-20T00:59:37;95982.75;;;3.67;95.41
71105;BME280;58760;48.716;8.962;2022-11-20T01:02:02;95983.56;;;3.68;95.19
71105;BME280;58760;48.716;8.962;2022-11-20T01:04:27;95987.84;;;3.69;95.37
71105;BME280;58760;48.716;8.962;2022-11-20T01:06:53;95989.06;;;3.75;94.56
71105;BME280;58760;48.716;8.962;2022-11-20T01:09:18;95983.53;;;3.78;93.98
71105;BME280;58760;48.716;8.962;2022-11-20T01:11:45;95986.75;;;3.72;93.84
71105;BME280;58760;48.716;8.962;2022-11-20T01:14:15;95977.19;;;3.80;93.64
71105;BME280;58760;48.716;8.962;2022-11-20T01:16:43;95980.06;;;3.87;92.44
71105;BME280;58760;48.716;8.962;2022-11-20T01:19:20;95982.69;;;3.87;91.67
71105;BME280;58760;48.716;8.962;2022-11-20T01:21:48;95988.19;;;3.84;91.87
71105;BME280;58760;48.716;8.962;2022-11-20T01:24:17;95983.81;;;3.75;91.57
71105;BME280;58760;48.716;8.962;2022-11-20T01:26:44;95989.94;;;3.65;91.43
71105;BME280;58760;48.716;8.962;2022-11-20T01:29:15;95990.66;;;3.58;92.12
71105;BME280;58760;48.716;8.962;2022-11-20T01:31:41;95993.31;;;3.48;92.69
71105;BME280;58760;48.716;8.962;2022-11-20T01:34:12;95988.38;;;3.36;93.01
71105;BME280;58760;48.716;8.962;2022-11-20T01:36:39;95996.47;;;3.52;92.44
71105;BME280;58760;48.716;8.962;2022-11-20T01:39:39;95985.66;;;3.64;92.12
71105;BME280;58760;48.716;8.962;2022-11-20T01:41:58;95983.53;;;3.41;91.85
71105;BME280;58760;48.716;8.962;2022-11-20T01:47:08;95988.47;;;3.53;90.84
71105;BME280;58760;48.716;8.962;2022-11-20T01:49:38;95982.59;;;3.32;91.46
71105;BME280;58760;48.716;8.962;2022-11-20T01:52:25;95982.88;;;3.29;91.83
71105;BME280;58760;48.716;8.962;2022-11-20T01:58:14;95979.44;;;3.19;91.06
71105;BME280;58760;48.716;8.962;2022-11-20T02:00:40;95985.69;;;3.08;91.09
71105;BME280;58760;48.716;8.962;2022-11-20T02:03:11;95981.72;;;2.95;91.58
71105;BME280;58760;48.716;8.962;2022-11-20T02:05:44;95981.81;;;2.93;92.29
71105;BME280;58760;48.716;8.962;2022-11-20T02:08:12;95983.91;;;2.80;92.76
71105;BME280;58760;48.716;8.962;2022-11-20T02:10:38;95981.28;;;2.80;94.23
71105;BME280;58760;48.716;8.962;2022-11-20T02:13:04;95976.88;;;2.81;94.93
71105;BME280;58760;48.716;8.962;2022-11-20T02:15:49;95982.00;;;2.82;95.08
71105;BME280;58760;48.716;8.962;2022-11-20T02:18:17;95977.16;;;2.87;95.39
71105;BME280;58760;48.716;8.962;2022-11-20T02:20:45;95974.78;;;3.03;95.85
71105;BME280;58760;48.716;8.962;2022-11-20T02:23:36;95977.19;;;3.43;94.22
71105;BME280;58760;48.716;8.962;2022-11-20T02:26:06;95982.13;;;3.46;93.78
71105;BME280;58760;48.716;8.962;2022-11-20T02:28:33;95974.75;;;3.69;92.98
71105;BME280;58760;48.716;8.962;2022-11-20T02:30:58;95968.44;;;3.52;93.05
71105;BME280;58760;48.716;8.962;2022-11-20T02:33:24;95969.41;;;3.51;93.51
71105;BME280;58760;48.716;8.962;2022-11-20T02:35:49;95980.84;;;3.60;93.44
71105;BME280;58760;48.716;8.962;2022-11-20T02:38:15;95983.16;;;3.73;93.50
71105;BME280;58760;48.716;8.962;2022-11-20T02:40:41;95984.84;;;3.64;93.25
71105;BME280;58760;48.716;8.962;2022-11-20T02:43:07;95983.56;;;3.68;93.68
71105;BME280;58760;48.716;8.962;2022-11-20T02:45:32;95989.41;;;3.62;93.88
71105;BME280;58760;48.716;8.962;2022-11-20T02:47:58;95990.03;;;3.83;94.32
71105;BME280;58760;48.716;8.962;2022-11-20T02:50:23;95994.91;;;3.68;93.86
71105;BME280;58760;48.716;8.962;2022-11-20T02:52:48;95991.06;;;3.63;94.20
71105;BME280;58760;48.716;8.962;2022-11-20T02:55:14;95983.88;;;3.65;94.23
71105;BME280;58760;48.716;8.962;2022-11-20T02:57:39;95990.91;;;3.64;93.92
71105;BME280;58760;48.716;8.962;2022-11-20T03:00:06;95995.59;;;3.61;93.85
71105;BME280;58760;48.716;8.962;2022-11-20T03:02:32;95996.72;;;3.58;93.84
71105;BME280;58760;48.716;8.962;2022-11-20T03:04:57;96001.31;;;3.56;93.98
71105;BME280;58760;48.716;8.962;2022-11-20T03:07:23;95995.66;;;3.42;93.68
71105;BME280;58760;48.716;8.962;2022-11-20T03:09:48;95996.69;;;3.22;94.21
71105;BME280;58760;48.716;8.962;2022-11-20T03:12:14;95989.38;;;3.35;94.22
71105;BME280;58760;48.716;8.962;2022-11-20T03:14:39;95992.78;;;3.35;93.94
71105;BME280;58760;48.716;8.962;2022-11-20T03:17:04;95991.69;;;3.38;93.76
71105;BME280;58760;48.716;8.962;2022-11-20T03:19:30;95990.75;;;3.20;94.35
71105;BME280;58760;48.716;8.962;2022-11-20T03:21:55;95995.31;;;3.17;94.71
71105;BME280;58760;48.716;8.962;2022-11-20T03:24:21;95993.22;;;3.31;94.25
71105;BME280;58760;48.716;8.962;2022-11-20T03:26:46;95991.47;;;3.22;93.90
71105;BME280;58760;48.716;8.962;2022-11-20T03:29:11;95981.97;;;3.01;94.32
71105;BME280;58760;48.716;8.962;2022-11-20T03:31:38;95984.88;;;2.98;94.93
71105;BME280;58760;48.716;8.962;2022-11-20T03:34:09;95983.50;;;2.94;94.55
71105;BME280;58760;48.716;8.962;2022-11-20T03:36:34;95986.41;;;2.82;95.20
71105;BME280;58760;48.716;8.962;2022-11-20T03:39:00;95985.41;;;2.73;95.75
71105;BME280;58760;48.716;8.962;2022-11-20T03:41:29;95989.56;;;2.85;96.18
71105;BME280;58760;48.716;8.962;2022-11-20T03:43:59;95981.16;;;2.91;96.22
71105;BME280;58760;48.716;8.962;2022-11-20T03:46:26;95980.19;;;3.02;95.77
71105;BME280;58760;48.716;8.962;2022-11-20T03:48:52;95984.00;;;3.27;95.11
71105;BME280;58760;48.716;8.962;2022-11-20T03:51:20;95976.28;;;3.25;94.44
71105;BME280;58760;48.716;8.962;2022-11-20T03:53:47;95976.28;;;3.15;94.05
71105;BME280;58760;48.716;8.962;2022-11-20T03:56:14;95974.78;;;3.13;94.27
71105;BME280;58760;48.716;8.962;2022-11-20T03:58:40;95974.19;;;3.19;95.06
71105;BME280;58760;48.716;8.962;2022-11-20T04:01:11;95979.44;;;3.19;94.94
71105;BME280;58760;48.716;8.962;2022-11-20T04:03:38;95976.16;;;3.17;95.19
71105;BME280;58760;48.716;8.962;2022-11-20T04:08:34;95973.00;;;3.04;95.91
71105;BME280;58760;48.716;8.962;2022-11-20T04:11:19;95973.00;;;3.04;96.40
71105;BME280;58760;48.716;8.962;2022-11-20T04:13:47;95977.13;;;3.06;96.77
71105;BME280;58760;48.716;8.962;2022-11-20T04:16:13;95978.78;;;3.07;97.00
71105;BME280;58760;48.716;8.962;2022-11-20T04:18:39;95974.38;;;3.08;97.10
71105;BME280;58760;48.716;8.962;2022-11-20T04:21:05;95974.94;;;3.11;97.43
71105;BME280;58760;48.716;8.962;2022-11-20T04:23:30;95967.91;;;3.12;97.31
71105;BME280;58760;48.716;8.962;2022-11-20T04:28:28;95968.81;;;3.21;97.85
71105;BME280;58760;48.716;8.962;2022-11-20T04:30:54;95961.78;;;3.21;97.64
71105;BME280;58760;48.716;8.962;2022-11-20T04:33:19;95966.75;;;3.24;97.57
71105;BME280;58760;48.716;8.962;2022-11-20T04:35:46;95964.69;;;3.28;97.84
71105;BME280;58760;48.716;8.962;2022-11-20T04:38:12;95963.69;;;3.29;97.73
71105;BME280;58760;48.716;8.962;2022-11-20T04:40:38;95961.59;;;3.32;97.57
71105;BME280;58760;48.716;8.962;2022-11-20T04:43:04;95960.06;;;3.39;97.38
71105;BME280;58760;48.716;8.962;2022-11-20T04:45:29;95961.41;;;3.53;97.02
71105;BME280;58760;48.716;8.962;2022-11-20T04:47:55;95960.25;;;3.65;95.66
71105;BME280;58760;48.716;8.962;2022-11-20T04:50:20;95961.09;;;3.93;94.45
71105;BME280;58760;48.716;8.962;2022-11-20T04:52:45;95955.50;;;4.05;93.28
71105;BME280;58760;48.716;8.962;2022-11-20T04:55:11;95957.97;;;4.07;92.99
71105;BME280;58760;48.716;8.962;2022-11-20T04:57:36;95955.22;;;4.08;92.98
71105;BME280;58760;48.716;8.962;2022-11-20T05:00:02;95955.63;;;4.04;92.99
71105;BME280;58760;48.716;8.962;2022-11-20T05:02:28;95955.88;;;4.10;93.17
71105;BME280;58760;48.716;8.962;2022-11-20T05:04:53;95959.22;;;4.30;92.88
71105;BME280;58760;48.716;8.962;2022-11-20T05:07:18;95953.59;;;4.25;92.39
71105;BME280;58760;48.716;8.962;2022-11-20T05:09:44;95953.72;;;4.23;92.81
71105;BME280;58760;48.716;8.962;2022-11-20T05:12:09;95955.97;;;4.18;93.07
71105;BME280;58760;48.716;8.962;2022-11-20T05:14:35;95954.25;;;4.27;92.98
71105;BME280;58760;48.716;8.962;2022-11-20T05:17:00;95960.88;;;4.31;92.35
71105;BME280;58760;48.716;8.962;2022-11-20T05:19:26;95957.41;;;4.31;92.68
71105;BME280;58760;48.716;8.962;2022-11-20T05:21:51;95950.56;;;4.20;93.00
71105;BME280;58760;48.716;8.962;2022-11-20T05:24:16;95956.75;;;4.29;93.13
71105;BME280;58760;48.716;8.962;2022-11-20T05:26:42;95956.28;;;4.15;93.03
71105;BME280;58760;48.716;8.962;2022-11-20T05:29:10;95955.38;;;4.25;92.95
71105;BME280;58760;48.716;8.962;2022-11-20T05:31:39;95949.84;;;4.28;92.87
71105;BME280;58760;48.716;8.962;2022-11-20T05:34:04;95956.16;;;4.35;92.48
71105;BME280;58760;48.716;8.962;2022-11-20T05:36:30;95955.75;;;4.30;92.33
71105;BME280;58760;48.716;8.962;2022-11-20T05:38:55;95954.97;;;4.19;92.53
71105;BME280;58760;48.716;8.962;2022-11-20T05:41:21;95953.34;;;4.36;92.23
71105;BME280;58760;48.716;8.962;2022-11-20T05:43:47;95950.44;;;4.21;92.06
71105;BME280;58760;48.716;8.962;2022-11-20T05:46:13;95953.97;;;4.30;92.56
71105;BME280;58760;48.716;8.962;2022-11-20T05:48:40;95954.50;;;4.34;91.95
71105;BME280;58760;48.716;8.962;2022-11-20T05:51:08;95952.94;;;4.13;91.68
71105;BME280;58760;48.716;8.962;2022-11-20T05:53:34;95947.75;;;4.04;91.89
71105;BME280;58760;48.716;8.962;2022-11-20T05:56:06;95954.69;;;4.05;92.00
71105;BME280;58760;48.716;8.962;2022-11-20T05:58:33;95955.59;;;4.13;91.42
71105;BME280;58760;48.716;8.962;2022-11-20T06:01:10;95962.06;;;4.19;91.55
71105;BME280;58760;48.716;8.962;2022-11-20T06:03:36;95956.28;;;4.15;91.88
71105;BME280;58760;48.716;8.962;2022-11-20T06:06:03;95949.84;;;4.28;91.26
71105;BME280;58760;48.716;8.962;2022-11-20T06:08:29;95953.97;;;4.30;90.50
71105;BME280;58760;48.716;8.962;2022-11-20T06:10:55;95959.75;;;4.34;90.71
71105;BME280;58760;48.716;8.962;2022-11-20T06:13:20;95958.66;;;4.27;91.42
71105;BME280;58760;48.716;8.962;2022-11-20T06:15:53;95951.72;;;4.35;90.68
71105;BME280;58760;48.716;8.962;2022-11-20T06:18:19;95948.69;;;4.30;91.23
71105;BME280;58760;48.716;8.962;2022-11-20T06:20:45;95956.06;;;4.44;91.19
71105;BME280;58760;48.716;8.962;2022-11-20T06:23:11;95945.50;;;4.54;90.90
71105;BME280;58760;48.716;8.962;2022-11-20T06:25:41;95941.59;;;4.58;91.93
71105;BME280;58760;48.716;8.962;2022-11-20T06:28:07;95942.63;;;4.65;89.67
71105;BME280;58760;48.716;8.962;2022-11-20T06:30:36;95950.53;;;4.47;90.12
71105;BME280;58760;48.716;8.962;2022-11-20T06:33:02;95945.34;;;4.38;89.53
71105;BME280;58760;48.716;8.962;2022-11-20T06:35:27;95950.91;;;4.35;89.87
71105;BME280;58760;48.716;8.962;2022-11-20T06:37:53;95949.22;;;4.34;90.58
71105;BME280;58760;48.716;8.962;2022-11-20T06:40:18;95949.69;;;4.47;89.64
71105;BME280;58760;48.716;8.962;2022-11-20T06:42:44;95952.47;;;4.28;89.40
71105;BME280;58760;48.716;8.962;2022-11-20T06:45:09;95953.81;;;4.32;90.02
71105;BME280;58760;48.716;8.962;2022-11-20T06:47:35;95948.63;;;4.22;89.75
71105;BME280;58760;48.716;8.962;2022-11-20T06:50:00;95952.53;;;4.36;89.88
71105;BME280;58760;48.716;8.962;2022-11-20T06:52:26;95958.06;;;4.33;89.75
71105;BME280;58760;48.716;8.962;2022-11-20T06:54:51;95961.09;;;4.38;90.30
71105;BME280;58760;48.716;8.962;2022-11-20T06:57:16;95973.28;;;4.39;90.47
71105;BME280;58760;48.716;8.962;2022-11-20T06:59:42;95969.81;;;4.56;90.30
71105;BME280;58760;48.716;8.962;2022-11-20T07:02:11;95976.34;;;4.69;89.68
71105;BME280;58760;48.716;8.962;2022-11-20T07:04:37;95969.66;;;4.75;89.83
71105;BME280;58760;48.716;8.962;2022-11-20T07:07:03;95977.69;;;4.73;90.48
71105;BME280;58760;48.716;8.962;2022-11-20T07:09:28;95974.38;;;4.71;91.22
71105;BME280;58760;48.716;8.962;2022-11-20T07:11:54;95970.78;;;4.72;91.23
71105;BME280;58760;48.716;8.962;2022-11-20T07:14:19;95970.88;;;4.81;90.91
71105;BME280;58760;48.716;8.962;2022-11-20T07:16:44;95966.44;;;4.81;90.74
71105;BME280;58760;48.716;8.962;2022-11-20T07:19:10;95975.50;;;4.69;90.72
71105;BME280;58760;48.716;8.962;2022-11-20T07:21:35;95971.53;;;4.65;90.81
71105;BME280;58760;48.716;8.962;2022-11-20T07:24:00;95973.50;;;4.63;91.04
71105;BME280;58760;48.716;8.962;2022-11-20T07:26:26;95972.56;;;4.72;90.97
71105;BME280;58760;48.716;8.962;2022-11-20T07:28:51;95969.94;;;4.72;90.09
71105;BME280;58760;48.716;8.962;2022-11-20T07:31:16;95975.81;;;4.66;90.95
71105;BME280;58760;48.716;8.962;2022-11-20T07:33:42;95971.31;;;4.76;90.74
71105;BME280;58760;48.716;8.962;2022-11-20T07:36:07;95978.22;;;4.77;91.03
71105;BME280;58760;48.716;8.962;2022-11-20T07:38:33;95978.75;;;4.81;91.43
71105;BME280;58760;48.716;8.962;2022-11-20T07:40:58;95980.16;;;4.93;91.50
71105;BME280;58760;48.716;8.962;2022-11-20T07:43:26;95978.19;;;4.95;91.37
71105;BME280;58760;48.716;8.962;2022-11-20T07:45:52;95982.19;;;4.99;91.15
71105;BME280;58760;48.716;8.962;2022-11-20T07:48:19;95978.81;;;5.06;90.01
71105;BME280;58760;48.716;8.962;2022-11-20T07:50:45;95978.19;;;5.12;90.25
71105;BME280;58760;48.716;8.962;2022-11-20T07:53:10;95981.78;;;5.11;90.61
71105;BME280;58760;48.716;8.962;2022-11-20T07:55:37;95983.56;;;5.28;89.20
71105;BME280;58760;48.716;8.962;2022-11-20T07:58:02;95984.81;;;5.42;88.18
71105;BME280;58760;48.716;8.962;2022-11-20T08:00:28;95989.97;;;5.52;88.17
71105;BME280;58760;48.716;8.962;2022-11-20T08:02:53;95981.06;;;5.53;88.05
71105;BME280;58760;48.716;8.962;2022-11-20T08:05:18;95991.56;;;5.70;87.97
71105;BME280;58760;48.716;8.962;2022-11-20T08:07:44;95991.09;;;5.75;87.59
71105;BME280;58760;48.716;8.962;2022-11-20T08:10:12;95991.09;;;5.75;87.80
71105;BME280;58760;48.716;8.962;2022-11-20T08:12:47;95993.09;;;5.81;87.76
71105;BME280;58760;48.716;8.962;2022-11-20T08:15:32;95993.75;;;5.83;87.54
71105;BME280;58760;48.716;8.962;2022-11-20T08:18:06;95999.97;;;5.74;87.35
71105;BME280;58760;48.716;8.962;2022-11-20T08:20:32;96004.28;;;5.83;87.43
71105;BME280;58760;48.716;8.962;2022-11-20T08:22:59;96007.59;;;5.85;86.75
71105;BME280;58760;48.716;8.962;2022-11-20T08:25:26;96010.94;;;5.87;87.83
71105;BME280;58760;48.716;8.962;2022-11-20T08:27:51;96012.59;;;5.88;87.85
71105;BME280;58760;48.716;8.962;2022-11-20T08:30:17;96008.50;;;6.02;86.89
71105;BME280;58760;48.716;8.962;2022-11-20T08:32:42;96008.03;;;5.98;86.79
71105;BME280;58760;48.716;8.962;2022-11-20T08:35:08;96007.78;;;6.17;86.76
71105;BME280;58760;48.716;8.962;2022-11-20T08:37:33;96009.22;;;6.12;86.13
71105;BME280;58760;48.716;8.962;2022-11-20T08:39:59;96012.09;;;6.26;86.56
71105;BME280;58760;48.716;8.962;2022-11-20T08:42:24;96017.69;;;6.31;85.90
71105;BME280;58760;48.716;8.962;2022-11-20T08:44:49;96012.09;;;6.26;86.08
71105;BME280;58760;48.716;8.962;2022-11-20T08:47:15;96018.00;;;6.20;86.19
71105;BME280;58760;48.716;8.962;2022-11-20T08:49:40;96020.00;;;6.35;86.51
71105;BME280;58760;48.716;8.962;2022-11-20T08:52:05;96011.16;;;6.44;85.60
71105;BME280;58760;48.716;8.962;2022-11-20T08:54:31;96024.69;;;6.57;85.26
71105;BME280;58760;48.716;8.962;2022-11-20T08:56:56;96036.19;;;6.48;84.48
71105;BME280;58760;48.716;8.962;2022-11-20T08:59:21;96025.97;;;6.45;85.23
71105;BME280;58760;48.716;8.962;2022-11-20T09:01:47;96031.06;;;6.38;85.61
71105;BME280;58760;48.716;8.962;2022-11-20T09:04:12;96025.91;;;6.28;85.37
71105;BME280;58760;48.716;8.962;2022-11-20T09:06:39;96032.34;;;6.26;85.63
71105;BME280;58760;48.716;8.962;2022-11-20T09:09:05;96034.31;;;6.24;85.54
71105;BME280;58760;48.716;8.962;2022-11-20T09:11:31;96028.41;;;6.30;84.51
71105;BME280;58760;48.716;8.962;2022-11-20T09:13:57;96045.66;;;6.24;84.68
71105;BME280;58760;48.716;8.962;2022-11-20T09:16:22;96025.22;;;6.18;85.46
71105;BME280;58760;48.716;8.962;2022-11-20T09:18:49;96031.81;;;6.22;85.33
71105;BME280;58760;48.716;8.962;2022-11-20T09:21:15;96034.28;;;6.16;84.60
71105;BME280;58760;48.716;8.962;2022-11-20T09:23:40;96046.59;;;6.15;85.04
71105;BME280;58760;48.716;8.962;2022-11-20T09:26:09;96038.38;;;6.10;84.65
71105;BME280;58760;48.716;8.962;2022-11-20T09:28:35;96037.38;;;6.11;84.96
71105;BME280;58760;48.716;8.962;2022-11-20T09:31:00;96046.28;;;6.10;85.36
71105;BME280;58760;48.716;8.962;2022-11-20T09:33:26;96049.22;;;6.07;85.38
71105;BME280;58760;48.716;8.962;2022-11-20T09:35:51;96054.31;;;6.09;84.65
71105;BME280;58760;48.716;8.962;2022-11-20T09:38:17;96052.50;;;6.09;84.54
71105;BME280;58760;48.716;8.962;2022-11-20T09:40:57;96047.75;;;6.13;84.91
71105;BME280;58760;48.716;8.962;2022-11-20T09:43:46;96044.47;;;6.11;84.82
71105;BME280;58760;48.716;8.962;2022-11-20T09:46:26;96045.66;;;6.24;84.65
71105;BME280;58760;48.716;8.962;2022-11-20T09:51:28;96050.25;;;6.22;85.07
71105;BME280;58760;48.716;8.962;2022-11-20T09:54:20;96054.38;;;6.17;85.84
71105;BME280;58760;48.716;8.962;2022-11-20T09:56:50;96049.22;;;6.07;84.18
71105;BME280;58760;48.716;8.962;2022-11-20T09:59:41;96054.81;;;6.12;84.74
71105;BME280;58760;48.716;8.962;2022-11-20T10:04:53;96049.28;;;6.23;86.24
71105;BME280;58760;48.716;8.962;2022-11-20T10:07:24;96058.16;;;6.22;86.28
71105;BME280;58760;48.716;8.962;2022-11-20T10:09:54;96049.81;;;6.27;86.06
71105;BME280;58760;48.716;8.962;2022-11-20T10:12:46;96052.06;;;6.22;86.29
71105;BME280;58760;48.716;8.962;2022-11-20T10:26:58;96049.28;;;6.23;89.41
71105;BME280;58760;48.716;8.962;2022-11-20T10:29:22;96046.16;;;6.20;89.53
71105;BME280;58760;48.716;8.962;2022-11-20T10:31:59;96053.53;;;6.16;90.20
71105;BME280;58760;48.716;8.962;2022-11-20T10:34:35;96052.19;;;6.12;90.57
71105;BME280;58760;48.716;8.962;2022-11-20T10:37:14;96052.91;;;6.22;91.78
71105;BME280;58760;48.716;8.962;2022-11-20T10:39:56;96050.91;;;6.16;91.52
71105;BME280;58760;48.716;8.962;2022-11-20T10:47:48;96046.69;;;6.31;91.30
71105;BME280;58760;48.716;8.962;2022-11-20T10:50:19;96044.34;;;6.28;90.97
71105;BME280;58760;48.716;8.962;2022-11-20T11:00:50;96035.81;;;7.09;88.27
71105;BME280;58760;48.716;8.962;2022-11-20T11:03:29;96042.44;;;7.13;87.50
71105;BME280;58760;48.716;8.962;2022-11-20T11:08:39;96031.56;;;7.16;84.99
71105;BME280;58760;48.716;8.962;2022-11-20T11:11:27;96037.00;;;7.14;84.78
71105;BME280;58760;48.716;8.962;2022-11-20T11:14:04;96034.88;;;7.18;83.33
71105;BME280;58760;48.716;8.962;2022-11-20T11:16:29;96020.03;;;7.33;81.84
71105;BME280;58760;48.716;8.962;2022-11-20T11:19:13;96009.94;;;7.45;82.04
71105;BME280;58760;48.716;8.962;2022-11-20T11:21:46;96015.56;;;7.50;80.64
71105;BME280;58760;48.716;8.962;2022-11-20T11:24:26;96008.09;;;7.69;80.76
71105;BME280;58760;48.716;8.962;2022-11-20T11:26:58;95990.94;;;7.73;79.42
71105;BME280;58760;48.716;8.962;2022-11-20T11:29:28;96003.47;;;7.71;79.73
71105;BME280;58760;48.716;8.962;2022-11-20T11:32:11;95996.00;;;7.99;78.79
71105;BME280;58760;48.716;8.962;2022-11-20T11:34:37;95988.25;;;8.45;77.89
71105;BME280;58760;48.716;8.962;2022-11-20T11:37:04;95982.25;;;9.41;74.55
71105;BME280;58760;48.716;8.962;2022-11-20T11:39:32;95982.25;;;10.37;69.12
71105;BME280;58760;48.716;8.962;2022-11-20T11:42:00;95971.03;;;11.84;62.19
71105;BME280;58760;48.716;8.962;2022-11-20T11:44:31;95965.47;;;12.47;59.84
71105;BME280;58760;48.716;8.962;2022-11-20T11:47:36;95960.34;;;11.49;61.48
71105;BME280;58760;48.716;8.962;2022-11-20T11:52:48;95961.69;;;10.25;65.24
71105;BME280;58760;48.716;8.962;2022-11-20T11:57:56;95959.47;;;9.99;65.05
71105;BME280;58760;48.716;8.962;2022-11-20T12:00:27;95951.25;;;10.74;64.77
71105;BME280;58760;48.716;8.962;2022-11-20T12:03:19;95949.31;;;12.08;59.79
71105;BME280;58760;48.716;8.962;2022-11-20T12:05:45;95950.16;;;13.23;54.86
71105;BME280;58760;48.716;8.962;2022-11-20T12:09:13;95931.94;;;15.19;49.53
71105;BME280;58760;48.716;8.962;2022-11-20T12:11:20;95926.34;;;13.81;50.70
71105;BME280;58760;48.716;8.962;2022-11-20T12:13:54;95931.09;;;13.26;50.43
71105;BME280;58760;48.716;8.962;2022-11-20T12:16:21;95929.44;;;13.78;52.01
71105;BME280;58760;48.716;8.962;2022-11-20T12:18:49;95930.34;;;14.36;49.25
71105;BME280;58760;48.716;8.962;2022-11-20T12:21:31;95923.66;;;14.58;48.68
71105;BME280;58760;48.716;8.962;2022-11-20T12:43:24;95917.41;;;15.15;44.85
71105;BME280;58760;48.716;8.962;2022-11-20T12:46:12;95921.50;;;12.58;50.58
71105;BME280;58760;48.716;8.962;2022-11-20T12:48:50;95926.22;;;12.69;50.67
71105;BME280;58760;48.716;8.962;2022-11-20T12:57:00;95909.03;;;16.04;41.70
71105;BME280;58760;48.716;8.962;2022-11-20T13:02:27;95922.56;;;11.54;51.08
71105;BME280;58760;48.716;8.962;2022-11-20T13:07:28;95931.78;;;11.30;54.05
71105;BME280;58760;48.716;8.962;2022-11-20T13:09:53;95925.50;;;10.17;56.09
71105;BME280;58760;48.716;8.962;2022-11-20T13:12:25;95928.94;;;9.59;59.47
71105;BME280;58760;48.716;8.962;2022-11-20T13:17:43;95915.59;;;12.15;52.60
71105;BME280;58760;48.716;8.962;2022-11-20T13:20:16;95921.16;;;11.09;55.77
71105;BME280;58760;48.716;8.962;2022-11-20T13:22:44;95918.34;;;10.32;58.07
71105;BME280;58760;48.716;8.962;2022-11-20T13:25:22;95923.19;;;10.65;58.03
71105;BME280;58760;48.716;8.962;2022-11-20T13:27:49;95926.22;;;9.67;61.62
71105;BME280;58760;48.716;8.962;2022-11-20T13:30:18;95931.53;;;9.15;63.00
71105;BME280;58760;48.716;8.962;2022-11-20T13:32:53;95925.28;;;8.71;65.46
71105;BME280;58760;48.716;8.962;2022-11-20T13:38:12;95936.91;;;8.23;68.70
71105;BME280;58760;48.716;8.962;2022-11-20T13:40:50;95929.38;;;8.12;70.81
71105;BME280;58760;48.716;8.962;2022-11-20T13:46:02;95921.13;;;7.76;72.91
71105;BME280;58760;48.716;8.962;2022-11-20T13:48:48;95913.84;;;7.78;74.40
71105;BME280;58760;48.716;8.962;2022-11-20T14:02:37;95908.13;;;8.05;70.95
71105;BME280;58760;48.716;8.962;2022-11-20T14:05:04;95906.53;;;7.88;70.57
71105;BME280;58760;48.716;8.962;2022-11-20T14:07:39;95900.44;;;7.87;70.97
71105;BME280;58760;48.716;8.962;2022-11-20T14:10:06;95908.25;;;7.73;71.67
71105;BME280;58760;48.716;8.962;2022-11-20T14:12:33;95906.09;;;7.76;71.57
71105;BME280;58760;48.716;8.962;2022-11-20T14:14:59;95904.00;;;7.64;70.70
71105;BME280;58760;48.716;8.962;2022-11-20T14:17:33;95901.03;;;7.59;71.11
71105;BME280;58760;48.716;8.962;2022-11-20T14:20:02;95901.03;;;7.59;70.54
71105;BME280;58760;48.716;8.962;2022-11-20T14:22:29;95904.34;;;7.61;72.08
71105;BME280;58760;48.716;8.962;2022-11-20T14:27:43;95904.69;;;7.50;71.63
71105;BME280;58760;48.716;8.962;2022-11-20T14:30:18;95907.34;;;7.42;72.18
71105;BME280;58760;48.716;8.962;2022-11-20T14:32:45;95902.94;;;7.34;71.88
71105;BME280;58760;48.716;8.962;2022-11-20T14:35:27;95905.56;;;7.26;72.91
71105;BME280;58760;48.716;8.962;2022-11-20T14:37:53;95901.47;;;7.07;73.30
71105;BME280;58760;48.716;8.962;2022-11-20T14:42:49;95887.31;;;7.08;74.38
71105;BME280;58760;48.716;8.962;2022-11-20T14:45:14;95881.84;;;7.18;75.08
71105;BME280;58760;48.716;8.962;2022-11-20T14:47:41;95873.78;;;7.11;76.00
71105;BME280;58760;48.716;8.962;2022-11-20T14:50:16;95873.09;;;7.09;75.03
71105;BME280;58760;48.716;8.962;2022-11-20T14:52:59;95864.22;;;7.10;75.90
71105;BME280;58760;48.716;8.962;2022-11-20T14:55:34;95869.50;;;7.10;77.68
71105;BME280;58760;48.716;8.962;2022-11-20T14:58:22;95861.91;;;6.99;78.16
71105;BME280;58760;48.716;8.962;2022-11-20T15:00:57;95862.75;;;6.92;78.54
71105;BME280;58760;48.716;8.962;2022-11-20T15:03:31;95862.75;;;6.83;78.36